PWSweather.com
Personal Weather Stations
Station Observations
URBANDALE
Westwind Acres And Meredith Hills, Urbandale, IA 50322

Westwind Acres And Meredith HillsUrbandale, IA 50322

Lat: 41.643, Lon: -93.709

Elevation: 928

Station Type:

http://urbandaleweather.com

Latest ConditionsUpdated 5:04:00 AM CST Thursday, Nov 21, 2019
Currently Today's Max Today's Min Today's Average
Temperature 54.1°F12.3°C 56.5°F13.6°C 53.2°F11.8°C 54.7°F12.6°C
Dew Point 51.6°F10.9°C 54.9°F12.7°C 51.6°F10.9°C 52.7°F11.5°C
Winds 2.9 mph SW4.7 kmh SW 4.9 mph -7.9 kmh - - 3.8 mph 6.1 kmh
Wind Gusts 8.1 mph13.0 kmh 15.0 mph24.1 kmh - -
Humidity 91% 95% 91% 93%
Pressure 29.62 in1003.0 mb 29.66 in1004.4 mb 29.58 in1001.7 mb -
Precipitation - 0.06 in1.5 mm - -
Hour Temp Dew Point Humidity Winds Wind Gusts Pressure Precip Precip Rate Daily Precip Total
05:04 AM 54.1°F12.3°C 51.6°F10.9°C 91% 2.9 mph SW4.7 kmh SW 8.1 mph13.0 kmh 29.62 in1003.0 mb 0.01 in0.3 mm 0.00 in0.0 mm 0.06 in1.5 mm
04:59 AM 54.7°F12.6°C 52.2°F11.2°C 91% 2.9 mph SW4.7 kmh SW 12.1 mph19.5 kmh 29.62 in1003.0 mb 0.01 in0.3 mm 0.00 in0.0 mm 0.06 in1.5 mm
04:54 AM 55.6°F13.1°C 53.1°F11.7°C 91% 4.0 mph NNW6.4 kmh NNW 12.1 mph19.5 kmh 29.61 in1002.7 mb 0.02 in0.5 mm 0.00 in0.0 mm 0.06 in1.5 mm
04:49 AM 56.3°F13.5°C 54.3°F12.4°C 93% 2.9 mph W4.7 kmh W 10.1 mph16.3 kmh 29.61 in1002.7 mb 0.02 in0.5 mm 0.00 in0.0 mm 0.06 in1.5 mm
04:44 AM 56.5°F13.6°C 54.9°F12.7°C 94% 2.9 mph SW4.7 kmh SW 6.9 mph11.1 kmh 29.60 in1002.4 mb 0.02 in0.5 mm 0.00 in0.0 mm 0.06 in1.5 mm
04:39 AM 56.5°F13.6°C 54.9°F12.7°C 94% 2.9 mph SSW4.7 kmh SSW 6.9 mph11.1 kmh 29.60 in1002.4 mb 0.02 in0.5 mm 0.00 in0.0 mm 0.06 in1.5 mm
04:34 AM 56.5°F13.6°C 54.9°F12.7°C 94% 2.9 mph SW4.7 kmh SW 6.0 mph9.7 kmh 29.60 in1002.4 mb 0.02 in0.5 mm 0.00 in0.0 mm 0.06 in1.5 mm
04:24 AM 56.3°F13.5°C 54.9°F12.7°C 95% 2.9 mph WSW4.7 kmh WSW 13.0 mph20.9 kmh 29.59 in1002.0 mb 0.02 in0.5 mm 0.00 in0.0 mm 0.06 in1.5 mm
04:19 AM 56.1°F13.4°C 54.7°F12.6°C 95% 2.0 mph SW3.2 kmh SW 6.0 mph9.7 kmh 29.59 in1002.0 mb 0.02 in0.5 mm 0.00 in0.0 mm 0.06 in1.5 mm
04:14 AM 55.9°F13.3°C 54.3°F12.4°C 94% 2.9 mph S4.7 kmh S 8.1 mph13.0 kmh 29.59 in1002.0 mb 0.02 in0.5 mm 0.12 in3.0 mm 0.06 in1.5 mm
04:09 AM 55.9°F13.3°C 54.3°F12.4°C 94% 2.9 mph S4.7 kmh S 8.1 mph13.0 kmh 29.58 in1001.7 mb 0.01 in0.3 mm 0.00 in0.0 mm 0.05 in1.3 mm
04:04 AM 55.9°F13.3°C 54.3°F12.4°C 94% 2.9 mph S4.7 kmh S 6.0 mph9.7 kmh 29.58 in1001.7 mb 0.01 in0.3 mm 0.00 in0.0 mm 0.05 in1.3 mm
03:59 AM 55.8°F13.2°C 54.1°F12.3°C 94% 4.0 mph SW6.4 kmh SW 11.0 mph17.7 kmh 29.58 in1001.7 mb 0.01 in0.3 mm 0.12 in3.0 mm 0.05 in1.3 mm
03:54 AM 55.8°F13.2°C 54.1°F12.3°C 94% 2.9 mph S4.7 kmh S 11.0 mph17.7 kmh 29.58 in1001.7 mb 0.00 in0.0 mm 0.00 in0.0 mm 0.04 in1.0 mm
03:49 AM 55.6°F13.1°C 53.6°F12.0°C 93% 4.0 mph S6.4 kmh S 6.9 mph11.1 kmh 29.58 in1001.7 mb 0.00 in0.0 mm 0.00 in0.0 mm 0.04 in1.0 mm
03:44 AM 55.6°F13.1°C 53.6°F12.0°C 93% 4.9 mph SSW7.9 kmh SSW 11.0 mph17.7 kmh 29.58 in1001.7 mb 0.01 in0.3 mm 0.00 in0.0 mm 0.04 in1.0 mm
03:39 AM 55.2°F12.9°C 53.2°F11.8°C 93% 4.9 mph S7.9 kmh S 15.0 mph24.1 kmh 29.58 in1001.7 mb 0.01 in0.3 mm 0.00 in0.0 mm 0.04 in1.0 mm
03:34 AM 55.2°F12.9°C 53.2°F11.8°C 93% 4.0 mph SSW6.4 kmh SSW 6.9 mph11.1 kmh 29.58 in1001.7 mb 0.01 in0.3 mm 0.00 in0.0 mm 0.04 in1.0 mm
03:29 AM 55.0°F12.8°C 53.1°F11.7°C 93% 4.0 mph SE6.4 kmh SE 8.9 mph14.3 kmh 29.59 in1002.0 mb 0.01 in0.3 mm 0.00 in0.0 mm 0.04 in1.0 mm
03:24 AM 55.0°F12.8°C 53.1°F11.7°C 93% 4.0 mph SW6.4 kmh SW 8.9 mph14.3 kmh 29.59 in1002.0 mb 0.01 in0.3 mm 0.00 in0.0 mm 0.04 in1.0 mm
03:19 AM 54.9°F12.7°C 52.9°F11.6°C 93% 4.0 mph SE6.4 kmh SE 8.9 mph14.3 kmh 29.59 in1002.0 mb 0.01 in0.3 mm 0.00 in0.0 mm 0.04 in1.0 mm
03:14 AM 54.9°F12.7°C 52.9°F11.6°C 93% 4.0 mph SSE6.4 kmh SSE 8.1 mph13.0 kmh 29.59 in1002.0 mb 0.01 in0.3 mm 0.00 in0.0 mm 0.04 in1.0 mm
03:09 AM 54.9°F12.7°C 52.9°F11.6°C 93% 4.9 mph S7.9 kmh S 8.9 mph14.3 kmh 29.59 in1002.0 mb 0.01 in0.3 mm 0.00 in0.0 mm 0.04 in1.0 mm
03:03 AM 54.9°F12.7°C 52.9°F11.6°C 93% 4.0 mph S6.4 kmh S 11.0 mph17.7 kmh 29.60 in1002.4 mb 0.01 in0.3 mm 0.00 in0.0 mm 0.04 in1.0 mm
02:58 AM 54.9°F12.7°C 52.5°F11.4°C 92% 4.0 mph SW6.4 kmh SW 8.1 mph13.0 kmh 29.60 in1002.4 mb 0.01 in0.3 mm 0.00 in0.0 mm 0.04 in1.0 mm
02:53 AM 54.9°F12.7°C 52.5°F11.4°C 92% 4.0 mph SW6.4 kmh SW 8.9 mph14.3 kmh 29.60 in1002.4 mb 0.01 in0.3 mm 0.12 in3.0 mm 0.04 in1.0 mm
02:48 AM 55.0°F12.8°C 52.7°F11.5°C 92% 4.0 mph SE6.4 kmh SE 8.1 mph13.0 kmh 29.60 in1002.4 mb 0.00 in0.0 mm 0.00 in0.0 mm 0.03 in0.8 mm
02:43 AM 54.9°F12.7°C 52.5°F11.4°C 92% 4.0 mph SSW6.4 kmh SSW 11.0 mph17.7 kmh 29.61 in1002.7 mb 0.00 in0.0 mm 0.00 in0.0 mm 0.03 in0.8 mm
02:38 AM 54.9°F12.7°C 52.5°F11.4°C 92% 4.0 mph SE6.4 kmh SE 11.0 mph17.7 kmh 29.61 in1002.7 mb 0.00 in0.0 mm 0.00 in0.0 mm 0.03 in0.8 mm
02:33 AM 54.9°F12.7°C 52.5°F11.4°C 92% 4.0 mph SSW6.4 kmh SSW 11.0 mph17.7 kmh 29.61 in1002.7 mb 0.00 in0.0 mm 0.00 in0.0 mm 0.03 in0.8 mm
02:28 AM 54.9°F12.7°C 52.5°F11.4°C 92% 4.0 mph S6.4 kmh S 8.9 mph14.3 kmh 29.61 in1002.7 mb 0.00 in0.0 mm 0.00 in0.0 mm 0.03 in0.8 mm
02:23 AM 54.7°F12.6°C 52.3°F11.3°C 92% 4.0 mph SSW6.4 kmh SSW 12.1 mph19.5 kmh 29.61 in1002.7 mb 0.00 in0.0 mm 0.00 in0.0 mm 0.03 in0.8 mm
02:18 AM 54.7°F12.6°C 52.3°F11.3°C 92% 4.9 mph SSW7.9 kmh SSW 11.0 mph17.7 kmh 29.61 in1002.7 mb 0.00 in0.0 mm 0.00 in0.0 mm 0.03 in0.8 mm
02:13 AM 54.7°F12.6°C 52.3°F11.3°C 92% 4.9 mph S7.9 kmh S 12.1 mph19.5 kmh 29.61 in1002.7 mb 0.00 in0.0 mm 0.00 in0.0 mm 0.03 in0.8 mm
02:08 AM 54.5°F12.5°C 52.2°F11.2°C 92% 4.0 mph S6.4 kmh S 13.0 mph20.9 kmh 29.61 in1002.7 mb 0.00 in0.0 mm 0.00 in0.0 mm 0.03 in0.8 mm
02:03 AM 54.3°F12.4°C 52.0°F11.1°C 92% 4.0 mph SSE6.4 kmh SSE 11.0 mph17.7 kmh 29.61 in1002.7 mb 0.00 in0.0 mm 0.00 in0.0 mm 0.03 in0.8 mm
01:58 AM 54.3°F12.4°C 52.0°F11.1°C 92% 4.0 mph SSW6.4 kmh SSW 11.0 mph17.7 kmh 29.62 in1003.0 mb 0.00 in0.0 mm 0.00 in0.0 mm 0.03 in0.8 mm
01:53 AM 54.3°F12.4°C 52.3°F11.3°C 93% 2.9 mph SSW4.7 kmh SSW 8.9 mph14.3 kmh 29.62 in1003.0 mb 0.00 in0.0 mm 0.00 in0.0 mm 0.03 in0.8 mm
01:48 AM 54.3°F12.4°C 52.3°F11.3°C 93% 4.0 mph SSW6.4 kmh SSW 6.9 mph11.1 kmh 29.62 in1003.0 mb 0.00 in0.0 mm 0.00 in0.0 mm 0.03 in0.8 mm
01:43 AM 54.3°F12.4°C 52.3°F11.3°C 93% 4.0 mph SSW6.4 kmh SSW 11.0 mph17.7 kmh 29.62 in1003.0 mb 0.00 in0.0 mm 0.00 in0.0 mm 0.03 in0.8 mm
01:38 AM 54.1°F12.3°C 52.2°F11.2°C 93% 4.0 mph S6.4 kmh S 10.1 mph16.3 kmh 29.63 in1003.4 mb 0.00 in0.0 mm 0.00 in0.0 mm 0.03 in0.8 mm
01:33 AM 54.1°F12.3°C 52.2°F11.2°C 93% 4.0 mph SSW6.4 kmh SSW 10.1 mph16.3 kmh 29.63 in1003.4 mb 0.00 in0.0 mm 0.00 in0.0 mm 0.03 in0.8 mm
01:28 AM 54.1°F12.3°C 52.2°F11.2°C 93% 4.0 mph SW6.4 kmh SW 10.1 mph16.3 kmh 29.63 in1003.4 mb 0.00 in0.0 mm 0.00 in0.0 mm 0.03 in0.8 mm
01:23 AM 54.0°F12.2°C 52.3°F11.3°C 94% 2.9 mph SSW4.7 kmh SSW 11.0 mph17.7 kmh 29.63 in1003.4 mb 0.00 in0.0 mm 0.00 in0.0 mm 0.03 in0.8 mm
01:18 AM 54.0°F12.2°C 52.0°F11.1°C 93% 2.9 mph S4.7 kmh S 6.9 mph11.1 kmh 29.64 in1003.7 mb 0.00 in0.0 mm 0.00 in0.0 mm 0.03 in0.8 mm
01:13 AM 54.0°F12.2°C 52.0°F11.1°C 93% 4.0 mph SW6.4 kmh SW 8.9 mph14.3 kmh 29.63 in1003.4 mb 0.01 in0.3 mm 0.00 in0.0 mm 0.03 in0.8 mm
01:08 AM 54.0°F12.2°C 52.3°F11.3°C 94% 4.0 mph SSW6.4 kmh SSW 8.1 mph13.0 kmh 29.64 in1003.7 mb 0.02 in0.5 mm 0.00 in0.0 mm 0.03 in0.8 mm
01:03 AM 53.8°F12.1°C 52.2°F11.2°C 94% 4.0 mph SE6.4 kmh SE 10.1 mph16.3 kmh 29.65 in1004.1 mb 0.03 in0.8 mm 0.00 in0.0 mm 0.03 in0.8 mm
12:58 AM 53.8°F12.1°C 52.2°F11.2°C 94% 4.0 mph S6.4 kmh S 8.9 mph14.3 kmh 29.65 in1004.1 mb 0.04 in1.0 mm 0.00 in0.0 mm 0.03 in0.8 mm
12:53 AM 53.6°F12.0°C 52.0°F11.1°C 94% 4.0 mph SW6.4 kmh SW 8.9 mph14.3 kmh 29.65 in1004.1 mb 0.05 in1.3 mm 0.00 in0.0 mm 0.03 in0.8 mm
12:48 AM 53.4°F11.9°C 51.8°F11.0°C 94% 4.0 mph S6.4 kmh S 8.1 mph13.0 kmh 29.66 in1004.4 mb 0.07 in1.8 mm 0.00 in0.0 mm 0.03 in0.8 mm
12:43 AM 53.4°F11.9°C 51.8°F11.0°C 94% 4.0 mph SE6.4 kmh SE 8.1 mph13.0 kmh 29.66 in1004.4 mb 0.07 in1.8 mm 0.00 in0.0 mm 0.03 in0.8 mm
12:38 AM 53.2°F11.8°C 51.6°F10.9°C 94% 4.0 mph S6.4 kmh S 8.9 mph14.3 kmh 29.66 in1004.4 mb 0.07 in1.8 mm 0.00 in0.0 mm 0.03 in0.8 mm
12:33 AM 53.2°F11.8°C 51.6°F10.9°C 94% 4.0 mph SW6.4 kmh SW 12.1 mph19.5 kmh 29.66 in1004.4 mb 0.07 in1.8 mm 0.00 in0.0 mm 0.03 in0.8 mm
12:28 AM 53.2°F11.8°C 51.6°F10.9°C 94% 4.0 mph S6.4 kmh S 8.9 mph14.3 kmh 29.66 in1004.4 mb 0.07 in1.8 mm 0.00 in0.0 mm 0.03 in0.8 mm
12:23 AM 53.2°F11.8°C 51.6°F10.9°C 94% 4.0 mph SE6.4 kmh SE 11.0 mph17.7 kmh 29.66 in1004.4 mb 0.08 in2.0 mm 0.00 in0.0 mm 0.03 in0.8 mm
12:18 AM 53.2°F11.8°C 51.6°F10.9°C 94% 4.0 mph SSE6.4 kmh SSE 14.1 mph22.7 kmh 29.66 in1004.4 mb 0.08 in2.0 mm 0.00 in0.0 mm 0.03 in0.8 mm
12:13 AM 53.2°F11.8°C 51.6°F10.9°C 94% 4.0 mph S6.4 kmh S 14.1 mph22.7 kmh 29.66 in1004.4 mb 0.10 in2.5 mm 0.00 in0.0 mm 0.02 in0.5 mm
12:08 AM 53.2°F11.8°C 51.6°F10.9°C 94% 4.0 mph S6.4 kmh S 13.0 mph20.9 kmh 29.66 in1004.4 mb 0.10 in2.5 mm 0.00 in0.0 mm 0.01 in0.3 mm
12:03 AM 53.2°F11.8°C 51.6°F10.9°C 94% 4.0 mph SSE6.4 kmh SSE 11.0 mph17.7 kmh 29.66 in1004.4 mb 0.10 in2.5 mm 2.00 in50.8 mm 0.10 in2.5 mm